Time;durP1;ratioP1;P1;durP2;ratioP2;P2;SDS_P1;SDS_P2;PMS_P1;PMS_P2;Temp;Humidity;BMP_temperature;BMP_pressure;BME280_temperature;BME280_humidity;BME280_pressure;Samples;Min_cycle;Max_cycle;Signal;HPM_P1;HPM_P2
2021/07/29 00:00:37;;;;;;;20.23;13.63;;;;;;;20.40;75.61;99043.92;129790;1093;24559;-67
2021/07/29 00:03:05;;;;;;;22.70;15.35;;;;;;;20.39;75.45;99039.52;129678;1093;113953;-67
2021/07/29 00:05:34;;;;;;;21.73;14.33;;;;;;;20.38;75.69;99044.25;129784;1092;22577;-67
2021/07/29 00:08:01;;;;;;;26.25;15.28;;;;;;;20.37;75.53;99048.16;129817;1093;22569;-67
2021/07/29 00:10:40;;;;;;;20.05;14.18;;;;;;;20.36;75.65;99052.06;129770;1093;113720;-67
2021/07/29 00:13:09;;;;;;;22.60;14.08;;;;;;;20.36;75.48;99056.79;129877;1093;22623;-67
2021/07/29 00:15:58;;;;;;;26.38;15.65;;;;;;;20.35;75.56;99055.13;129742;1092;113990;-67
2021/07/29 00:21:12;;;;;;;25.25;15.00;;;;;;;20.36;75.60;99054.02;129749;1093;114116;-66
2021/07/29 00:23:39;;;;;;;24.70;14.45;;;;;;;20.35;75.67;99055.13;129809;1093;22580;-67
2021/07/29 00:26:09;;;;;;;24.43;15.83;;;;;;;20.33;75.80;99052.73;129777;1093;22486;-67
2021/07/29 00:28:37;;;;;;;28.53;16.38;;;;;;;20.32;75.84;99050.29;129660;1092;113935;-67
2021/07/29 00:31:05;;;;;;;15.75;13.53;;;;;;;20.30;75.69;99052.58;129878;1093;22581;-67
2021/07/29 00:33:32;;;;;;;26.50;15.40;;;;;;;20.27;75.72;99062.34;129795;1093;114898;-67
2021/07/29 00:36:22;;;;;;;28.43;14.53;;;;;;;20.24;75.71;99059.43;129895;1093;22617;-67
2021/07/29 00:38:49;;;;;;;26.18;15.10;;;;;;;20.24;75.74;99056.66;129743;1093;114380;-67
2021/07/29 00:41:17;;;;;;;21.20;15.30;;;;;;;20.21;75.59;99055.37;125747;1093;22833;-68
2021/07/29 00:43:45;;;;;;;19.33;15.35;;;;;;;20.20;75.87;99050.20;125172;1093;22795;-68
2021/07/29 00:46:13;;;;;;;23.65;14.95;;;;;;;20.18;75.92;99055.25;129715;1092;114261;-68
2021/07/29 00:48:42;;;;;;;22.95;14.20;;;;;;;20.13;75.84;99059.81;129876;1093;22544;-68
2021/07/29 00:51:10;;;;;;;21.48;14.78;;;;;;;20.11;76.23;99062.09;129664;1093;115093;-68
2021/07/29 00:53:37;;;;;;;19.95;14.68;;;;;;;20.10;76.10;99056.89;129742;1092;22520;-68
2021/07/29 00:56:05;;;;;;;19.08;13.98;;;;;;;20.11;76.32;99059.33;129794;1093;22608;-68
2021/07/29 00:58:32;;;;;;;19.23;15.38;;;;;;;20.13;76.25;99062.58;129638;1093;114047;-68
2021/07/29 01:01:00;;;;;;;25.65;14.30;;;;;;;20.15;75.92;99053.14;129761;1092;22546;-68
2021/07/29 01:03:27;;;;;;;21.08;14.63;;;;;;;20.16;76.11;99049.23;129797;1093;114020;-68
2021/07/29 01:05:56;;;;;;;22.98;14.40;;;;;;;20.16;76.00;99054.77;129793;1093;22669;-67
2021/07/29 01:08:23;;;;;;;19.83;13.73;;;;;;;20.15;75.98;99055.91;129627;1093;114483;-68
2021/07/29 01:10:51;;;;;;;21.95;15.00;;;;;;;20.14;75.80;99055.09;129796;1093;22607;-68
2021/07/29 01:13:21;;;;;;;17.30;14.28;;;;;;;20.13;75.92;99048.75;129750;1093;23123;-68
2021/07/29 01:15:48;;;;;;;20.35;14.30;;;;;;;20.11;76.01;99056.56;129692;1093;114149;-68
2021/07/29 01:18:16;;;;;;;22.63;14.93;;;;;;;20.11;76.09;99051.03;129781;1093;22500;-68
2021/07/29 01:20:44;;;;;;;28.60;14.35;;;;;;;20.10;76.21;99051.36;129756;1092;114110;-68
2021/07/29 01:23:11;;;;;;;28.43;15.30;;;;;;;20.06;76.18;99050.39;129888;1093;23788;-68
2021/07/29 01:25:39;;;;;;;18.33;14.18;;;;;;;20.02;76.13;99047.50;129832;1093;22623;-68
2021/07/29 01:28:06;;;;;;;23.93;14.28;;;;;;;20.01;76.47;99056.94;129660;1093;114158;-68
2021/07/29 01:30:34;;;;;;;27.48;15.63;;;;;;;19.99;76.37;99059.22;129773;1093;22552;-68
2021/07/29 01:33:03;;;;;;;32.73;15.15;;;;;;;19.99;76.44;99069.47;129783;1093;114777;-68
2021/07/29 01:35:30;;;;;;;22.20;14.15;;;;;;;19.99;76.63;99069.47;129750;1092;22684;-68
2021/07/29 01:37:57;;;;;;;24.45;15.28;;;;;;;19.99;76.92;99064.75;129788;1092;23151;-68
2021/07/29 01:40:25;;;;;;;29.05;15.35;;;;;;;20.01;76.90;99075.48;127315;1093;113899;-68
2021/07/29 01:42:53;;;;;;;23.65;15.13;;;;;;;20.03;76.94;99074.02;129832;1093;22609;-68
2021/07/29 01:45:20;;;;;;;28.93;15.48;;;;;;;20.05;77.03;99074.47;129752;1093;114725;-68
2021/07/29 01:47:48;;;;;;;24.33;14.55;;;;;;;20.10;76.97;99076.25;129897;1092;22615;-68
2021/07/29 01:50:15;;;;;;;22.95;14.28;;;;;;;20.12;76.83;99071.20;129808;1093;23478;-68
2021/07/29 01:52:43;;;;;;;24.48;15.75;;;;;;;20.14;76.85;99074.45;129759;1093;114100;-68
2021/07/29 01:55:10;;;;;;;28.75;16.88;;;;;;;20.17;76.86;99082.09;129870;1093;22557;-68
2021/07/29 01:57:38;;;;;;;26.58;15.93;;;;;;;20.19;77.02;99079.00;129667;1092;114167;-68
2021/07/29 02:00:09;;;;;;;22.25;15.33;;;;;;;20.22;76.81;99081.08;129858;1092;22491;-68
2021/07/29 02:02:43;;;;;;;22.90;14.73;;;;;;;20.24;76.60;99070.50;129798;1093;114362;-68
2021/07/29 02:05:10;;;;;;;18.28;14.03;;;;;;;20.27;76.58;99075.38;129828;1093;22646;-68
2021/07/29 02:07:38;;;;;;;21.05;15.30;;;;;;;20.29;76.42;99078.63;129920;1092;22518;-68
2021/07/29 02:10:06;;;;;;;21.95;15.90;;;;;;;20.32;76.46;99080.73;129641;1093;114866;-68
2021/07/29 02:12:34;;;;;;;19.30;15.00;;;;;;;20.33;76.29;99071.28;129845;1092;22551;-68
2021/07/29 02:15:01;;;;;;;17.93;14.88;;;;;;;20.33;76.45;99072.09;130419;1086;114540;-68
2021/07/29 02:17:29;;;;;;;17.90;15.55;;;;;;;20.35;76.34;99066.20;130492;1085;22627;-68
2021/07/29 02:19:57;;;;;;;20.25;15.30;;;;;;;20.31;76.09;99059.73;130539;1085;23411;-68
2021/07/29 02:22:24;;;;;;;17.63;15.10;;;;;;;20.33;76.30;99061.03;130418;1086;114196;-68
2021/07/29 02:24:52;;;;;;;20.40;16.45;;;;;;;20.34;76.47;99048.78;130438;1087;23745;-68
2021/07/29 02:27:23;;;;;;;18.80;14.88;;;;;;;20.35;76.62;99055.13;130379;1087;113255;-68
2021/07/29 02:29:51;;;;;;;23.43;15.00;;;;;;;20.34;76.64;99051.55;130496;1085;22616;-68
2021/07/29 02:32:19;;;;;;;20.52;15.63;;;;;;;20.34;76.82;99045.23;130351;1087;114795;-67
2021/07/29 02:34:47;;;;;;;21.68;16.25;;;;;;;20.35;76.92;99041.30;130519;1086;27881;-68
2021/07/29 02:37:15;;;;;;;20.45;16.45;;;;;;;20.34;76.88;99043.25;130519;1087;23101;-68
2021/07/29 02:39:42;;;;;;;24.90;16.53;;;;;;;20.36;76.80;99034.66;129265;1087;114516;-68
2021/07/29 02:42:10;;;;;;;22.08;16.15;;;;;;;20.35;76.87;99028.27;130483;1087;22639;-68
2021/07/29 02:44:38;;;;;;;22.45;16.08;;;;;;;20.35;77.15;99030.23;130412;1087;114342;-67
2021/07/29 02:47:06;;;;;;;21.83;15.53;;;;;;;20.34;76.96;99032.19;130510;1086;22532;-67
2021/07/29 02:49:33;;;;;;;18.40;15.33;;;;;;;20.35;77.43;99035.77;130508;1086;22522;-67
2021/07/29 02:52:01;;;;;;;23.83;15.45;;;;;;;20.36;77.63;99035.47;130363;1087;114265;-67
2021/07/29 02:54:29;;;;;;;22.05;15.18;;;;;;;20.38;77.42;99032.37;130521;1087;22525;-67
2021/07/29 02:57:05;;;;;;;19.23;14.50;;;;;;;20.40;77.56;99024.55;130419;1086;114365;-67
2021/07/29 02:59:33;;;;;;;18.58;15.00;;;;;;;20.40;77.80;99016.24;130528;1087;22540;-67
2021/07/29 03:02:00;;;;;;;27.78;19.68;;;;;;;20.43;77.69;99018.34;130492;1087;22575;-67
2021/07/29 03:04:29;;;;;;;22.35;18.38;;;;;;;20.47;77.97;99008.23;130440;1085;114384;-67
2021/07/29 03:06:58;;;;;;;24.58;19.08;;;;;;;20.51;77.73;99011.13;130528;1087;23798;-67
2021/07/29 03:09:26;;;;;;;24.38;19.80;;;;;;;20.55;77.72;99012.89;130399;1087;114107;-67
2021/07/29 03:11:57;;;;;;;23.05;16.28;;;;;;;20.60;77.96;99009.13;130496;1087;22603;-68
2021/07/29 03:14:26;;;;;;;23.40;16.13;;;;;;;20.63;78.14;99003.70;130375;1086;114217;-67
2021/07/29 03:16:54;;;;;;;31.10;19.78;;;;;;;20.69;78.27;99001.55;130491;1087;23161;-68
2021/07/29 03:19:22;;;;;;;25.00;18.68;;;;;;;20.72;78.10;98998.93;130495;1087;22536;-68
2021/07/29 03:21:50;;;;;;;37.63;18.83;;;;;;;20.77;78.32;99001.50;130352;1087;114167;-68
2021/07/29 03:24:17;;;;;;;27.53;18.33;;;;;;;20.81;78.34;99005.20;130481;1086;22640;-68
2021/07/29 03:26:44;;;;;;;25.80;18.75;;;;;;;20.87;78.17;99000.27;130432;1087;115170;-68
2021/07/29 03:29:13;;;;;;;27.68;20.48;;;;;;;20.95;78.07;99004.11;130523;1085;22500;-68
2021/07/29 03:31:41;;;;;;;31.63;21.93;;;;;;;21.01;77.83;99002.76;130492;1086;22593;-68
2021/07/29 03:34:09;;;;;;;25.13;21.25;;;;;;;21.09;77.78;99004.63;130440;1087;115015;-68
2021/07/29 03:36:36;;;;;;;31.35;20.05;;;;;;;21.18;77.80;98999.84;130515;1086;22570;-68
2021/07/29 03:39:07;;;;;;;30.23;19.35;;;;;;;21.22;77.52;98992.47;130375;1087;114325;-63
2021/07/29 03:41:35;;;;;;;25.20;18.18;;;;;;;21.34;76.58;98997.27;130536;1087;22523;-67
2021/07/29 03:44:03;;;;;;;26.88;17.80;;;;;;;21.46;75.92;98988.98;130469;1087;22527;-67
2021/07/29 03:46:31;;;;;;;26.38;17.78;;;;;;;21.56;75.54;98990.48;130404;1087;114087;-67
2021/07/29 03:49:00;;;;;;;26.73;17.40;;;;;;;21.66;75.72;98988.08;130529;1087;22548;-67
2021/07/29 03:51:28;;;;;;;22.90;17.28;;;;;;;21.76;75.45;98990.42;130367;1087;114175;-66
2021/07/29 03:53:55;;;;;;;21.60;16.45;;;;;;;21.84;74.87;98994.23;130527;1087;22623;-67
2021/07/29 03:56:24;;;;;;;27.90;15.18;;;;;;;21.94;74.38;98987.41;130423;1087;114262;-66
2021/07/29 03:58:52;;;;;;;26.65;16.78;;;;;;;22.02;74.04;98984.56;130488;1087;22540;-66
2021/07/29 04:01:19;;;;;;;24.55;17.03;;;;;;;22.11;73.83;98988.02;130501;1087;22690;-66
2021/07/29 04:03:48;;;;;;;23.90;16.53;;;;;;;22.21;73.85;98984.80;130395;1087;114377;-66
2021/07/29 04:06:17;;;;;;;21.63;16.63;;;;;;;22.32;73.65;98996.23;130478;1087;22548;-66
2021/07/29 04:09:04;;;;;;;19.40;15.55;;;;;;;22.44;73.10;98996.22;130369;1087;113921;-66
2021/07/29 04:11:35;;;;;;;22.55;16.75;;;;;;;22.56;73.10;98987.86;130527;1087;22614;-66
2021/07/29 04:14:03;;;;;;;21.68;16.03;;;;;;;22.70;72.98;98989.45;130456;1087;22540;-67
2021/07/29 04:16:33;;;;;;;18.63;15.65;;;;;;;22.81;72.24;98988.63;130381;1087;114597;-67
2021/07/29 04:19:18;;;;;;;60.28;35.68;;;;;;;22.93;72.21;98993.36;130572;1085;22556;-67
2021/07/29 04:21:45;;;;;;;54.35;35.13;;;;;;;23.03;72.14;98989.27;130401;1086;114175;-67
2021/07/29 04:24:13;;;;;;;96.15;57.60;;;;;;;23.12;72.10;98987.13;130497;1087;22686;-67
2021/07/29 04:26:42;;;;;;;99.73;55.08;;;;;;;23.21;71.66;98987.80;130412;1085;115741;-67
2021/07/29 04:29:09;;;;;;;91.55;50.88;;;;;;;23.30;71.83;98990.41;130471;1087;22557;-67
2021/07/29 04:31:37;;;;;;;83.20;50.83;;;;;;;23.40;72.05;98987.91;130496;1087;22598;-67
2021/07/29 04:34:04;;;;;;;64.88;39.95;;;;;;;23.49;71.42;98983.02;130429;1085;115694;-67
2021/07/29 04:36:38;;;;;;;44.70;27.30;;;;;;;23.59;71.07;98979.73;130492;1087;23335;-67
2021/07/29 04:39:07;;;;;;;34.53;18.65;;;;;;;23.69;70.66;98989.50;130424;1087;114089;-61
2021/07/29 04:41:42;;;;;;;17.63;14.30;;;;;;;23.77;70.27;98988.53;130475;1087;22603;-67
2021/07/29 04:44:11;;;;;;;21.73;14.28;;;;;;;23.86;69.96;98991.13;130508;1087;22545;-68
2021/07/29 04:46:40;;;;;;;14.98;13.38;;;;;;;23.94;69.08;98981.81;130409;1087;113878;-68
2021/07/29 04:49:09;;;;;;;17.15;13.25;;;;;;;24.03;68.87;98992.74;130503;1087;23358;-68
2021/07/29 04:51:39;;;;;;;15.88;14.03;;;;;;;24.12;68.24;98991.38;130055;1087;114181;-68
2021/07/29 04:54:06;;;;;;;25.65;14.70;;;;;;;24.21;67.80;98993.98;130500;1087;22552;-68
2021/07/29 04:56:34;;;;;;;19.00;13.35;;;;;;;24.30;67.32;98987.08;130349;1087;114405;-68
2021/07/29 04:59:01;;;;;;;17.93;13.33;;;;;;;24.41;66.98;98978.16;130498;1087;22583;-68
2021/07/29 05:01:29;;;;;;;18.53;13.00;;;;;;;24.52;66.95;98980.04;130480;1087;23076;-68
2021/07/29 05:04:01;;;;;;;16.70;12.68;;;;;;;24.65;66.32;98986.28;130433;1086;114072;-68
2021/07/29 05:06:29;;;;;;;17.58;12.43;;;;;;;24.79;65.92;98989.38;130511;1085;22524;-68
2021/07/29 05:08:57;;;;;;;15.20;11.73;;;;;;;24.93;65.11;98978.56;130380;1087;114691;-68
2021/07/29 05:11:25;;;;;;;25.28;12.40;;;;;;;25.08;65.10;98981.64;130461;1087;22561;-68
2021/07/29 05:13:53;;;;;;;18.68;11.25;;;;;;;25.22;64.55;98982.73;130533;1087;22591;-67
2021/07/29 05:16:38;;;;;;;20.68;10.65;;;;;;;25.42;63.62;98977.11;130326;1087;115393;-68
2021/07/29 05:19:05;;;;;;;12.78;9.28;;;;;;;25.57;62.51;98968.63;130492;1086;22533;-67
2021/07/29 05:21:34;;;;;;;9.75;8.75;;;;;;;25.79;61.84;98966.27;130407;1085;114031;-68
2021/07/29 05:24:04;;;;;;;20.83;10.78;;;;;;;26.02;61.11;98959.47;130452;1087;22608;-68
2021/07/29 05:26:32;;;;;;;20.10;9.65;;;;;;;26.31;60.15;98955.16;130399;1087;114359;-68
2021/07/29 05:28:59;;;;;;;17.08;9.38;;;;;;;26.68;58.75;98955.30;130431;1086;23724;-68
2021/07/29 05:31:27;;;;;;;10.35;9.25;;;;;;;27.07;58.43;98958.60;130514;1086;22626;-68
2021/07/29 05:33:55;;;;;;;10.05;8.90;;;;;;;27.46;57.28;98953.42;130386;1086;115729;-69
2021/07/29 05:36:23;;;;;;;10.35;8.75;;;;;;;27.82;55.46;98941.80;130501;1085;22651;-68
2021/07/29 05:38:51;;;;;;;9.85;8.30;;;;;;;28.20;53.83;98955.31;130386;1085;114128;-68
2021/07/29 05:41:18;;;;;;;9.13;7.77;;;;;;;28.53;52.26;98948.73;126251;1087;22825;-67
2021/07/29 05:43:46;;;;;;;11.05;7.03;;;;;;;28.90;51.37;98939.31;125660;1085;22917;-69
2021/07/29 05:46:14;;;;;;;7.93;7.08;;;;;;;29.24;50.44;98951.06;130332;1086;113781;-69
2021/07/29 05:48:42;;;;;;;9.35;7.63;;;;;;;29.50;48.65;98950.73;130442;1087;22570;-68
2021/07/29 05:51:09;;;;;;;18.90;7.75;;;;;;;29.68;49.23;98943.16;130392;1086;113782;-69
2021/07/29 05:53:36;;;;;;;8.95;6.93;;;;;;;29.91;48.93;98948.36;130442;1087;22624;-69
2021/07/29 05:56:04;;;;;;;32.93;9.05;;;;;;;30.14;47.87;98945.98;130487;1086;22545;-67
2021/07/29 05:58:31;;;;;;;12.23;6.93;;;;;;;30.32;47.96;98945.14;130390;1087;114264;-66
2021/07/29 06:01:06;;;;;;;16.05;7.38;;;;;;;30.50;46.56;98943.91;130473;1086;22605;-62
2021/07/29 06:03:34;;;;;;;16.10;6.80;;;;;;;30.53;46.64;98945.91;130405;1087;113933;-68
2021/07/29 06:06:02;;;;;;;12.73;7.00;;;;;;;30.49;46.75;98941.50;130529;1087;22541;-68
2021/07/29 06:08:29;;;;;;;;;;;;;;;30.44;46.55;98939.89;130377;1087;114038;-67
2021/07/29 06:10:57;;;;;;;7.25;6.18;;;;;;;30.36;47.08;98941.13;130516;1086;22530;-67
2021/07/29 06:13:25;;;;;;;16.48;6.93;;;;;;;30.29;46.83;98941.16;130511;1087;22546;-68
2021/07/29 06:15:52;;;;;;;9.03;6.35;;;;;;;30.19;46.94;98936.33;130410;1087;114425;-67
2021/07/29 06:18:23;;;;;;;7.48;6.68;;;;;;;30.06;47.74;98935.95;130485;1087;22570;-68
2021/07/29 06:20:50;;;;;;;8.18;6.83;;;;;;;29.91;47.31;98942.74;130412;1087;113940;-67
2021/07/29 06:23:18;;;;;;;13.10;6.83;;;;;;;29.76;48.62;98936.32;130486;1087;22499;-67
2021/07/29 06:25:45;;;;;;;16.13;6.98;;;;;;;29.59;47.54;98937.11;130509;1087;23323;-67
2021/07/29 06:28:14;;;;;;;13.33;7.73;;;;;;;29.33;48.24;98935.44;130379;1086;113841;-67
2021/07/29 06:30:42;;;;;;;8.45;7.08;;;;;;;29.12;49.02;98933.39;130488;1087;22535;-67
2021/07/29 06:33:10;;;;;;;11.18;6.90;;;;;;;29.00;49.22;98930.92;130405;1085;113773;-67
2021/07/29 06:35:38;;;;;;;15.25;7.45;;;;;;;28.86;49.38;98930.88;130489;1086;22540;-68
2021/07/29 06:38:05;;;;;;;16.15;7.65;;;;;;;28.71;49.78;98927.17;130520;1087;22530;-68
2021/07/29 06:40:33;;;;;;;10.13;7.55;;;;;;;28.60;50.94;98929.13;130410;1086;115009;-67
2021/07/29 06:43:00;;;;;;;7.65;6.73;;;;;;;28.53;51.46;98923.50;130497;1087;23062;-67
2021/07/29 06:45:28;;;;;;;9.68;7.03;;;;;;;28.49;51.17;98929.08;130383;1085;113790;-66
2021/07/29 06:47:55;;;;;;;10.83;8.15;;;;;;;28.46;51.14;98932.66;130525;1086;22535;-67
2021/07/29 06:50:22;;;;;;;11.55;8.05;;;;;;;28.43;51.33;98933.44;130382;1087;114098;-66
2021/07/29 06:52:50;;;;;;;9.43;7.18;;;;;;;28.44;51.44;98932.25;130469;1087;22605;-66
2021/07/29 06:55:17;;;;;;;8.50;7.53;;;;;;;28.46;52.51;98935.47;130505;1085;22529;-66
2021/07/29 06:57:45;;;;;;;10.25;8.38;;;;;;;28.47;52.45;98936.27;130358;1087;114625;-67
2021/07/29 07:00:12;;;;;;;9.08;7.58;;;;;;;28.45;51.97;98931.05;130525;1087;22560;-66
2021/07/29 07:02:40;;;;;;;13.63;9.28;;;;;;;28.46;53.05;98934.66;130383;1086;114348;-67
2021/07/29 07:05:08;;;;;;;11.18;9.00;;;;;;;28.49;52.66;98936.69;130512;1087;22550;-66
2021/07/29 07:07:36;;;;;;;11.80;8.83;;;;;;;28.55;53.37;98937.13;130484;1087;23608;-66
2021/07/29 07:10:04;;;;;;;11.80;9.00;;;;;;;28.60;53.43;98939.54;130449;1085;113973;-67
2021/07/29 07:12:51;;;;;;;9.13;7.83;;;;;;;28.63;52.11;98947.17;130501;1087;22521;-66
2021/07/29 07:15:19;;;;;;;20.45;8.28;;;;;;;28.65;52.78;98937.17;130399;1087;113783;-66
2021/07/29 07:17:47;;;;;;;15.33;8.80;;;;;;;28.65;51.45;98928.77;130514;1087;22523;-66
2021/07/29 07:20:15;;;;;;;19.43;8.60;;;;;;;28.63;52.05;98931.16;130494;1087;22619;-66
2021/07/29 07:22:42;;;;;;;14.23;8.75;;;;;;;28.62;51.82;98929.55;130354;1087;113853;-66
2021/07/29 07:25:10;;;;;;;13.10;8.48;;;;;;;28.63;51.61;98930.35;130502;1086;22531;-66
2021/07/29 07:27:38;;;;;;;8.43;7.28;;;;;;;28.63;52.09;98921.94;130426;1087;113986;-66
2021/07/29 07:30:06;;;;;;;9.85;8.55;;;;;;;28.66;52.53;98932.38;130524;1087;22560;-67
2021/07/29 07:32:33;;;;;;;11.33;7.73;;;;;;;28.67;52.38;98920.77;130403;1087;113932;-66
2021/07/29 07:35:03;;;;;;;8.93;8.05;;;;;;;28.69;51.85;98920.38;130175;1087;22534;-66
2021/07/29 07:37:46;;;;;;;10.18;7.93;;;;;;;28.72;52.27;98927.98;130458;1085;22568;-66
2021/07/29 07:40:14;;;;;;;9.85;8.85;;;;;;;28.74;52.47;98929.20;130427;1087;114061;-67
2021/07/29 07:42:43;;;;;;;13.03;8.55;;;;;;;28.76;52.48;98926.81;130470;1086;22584;-67
2021/07/29 07:45:11;;;;;;;11.15;8.35;;;;;;;28.80;52.83;98924.06;130410;1085;113915;-68
2021/07/29 07:47:39;;;;;;;12.83;8.88;;;;;;;28.84;53.80;98916.47;130469;1087;22545;-67
2021/07/29 07:50:07;;;;;;;10.25;8.95;;;;;;;28.87;53.00;98921.27;130515;1087;22559;-67
2021/07/29 07:52:35;;;;;;;11.98;9.63;;;;;;;28.91;52.88;98918.48;130400;1087;114213;-67
2021/07/29 07:55:02;;;;;;;15.05;9.20;;;;;;;28.94;52.77;98924.11;130505;1087;23394;-67
2021/07/29 07:57:30;;;;;;;13.63;8.13;;;;;;;28.96;53.19;98918.91;130406;1087;114011;-67
2021/07/29 07:59:58;;;;;;;11.78;8.55;;;;;;;28.99;52.89;98920.13;130481;1086;22516;-68
2021/07/29 08:02:26;;;;;;;12.30;7.40;;;;;;;29.01;53.53;98912.90;130410;1087;114004;-67
2021/07/29 08:04:54;;;;;;;20.05;8.20;;;;;;;29.04;53.19;98908.50;130465;1087;22611;-68
2021/07/29 08:07:55;;;;;;;12.58;7.93;;;;;;;29.06;52.70;98904.11;130464;1087;22541;-67
2021/07/29 08:10:32;;;;;;;18.70;8.30;;;;;;;29.11;53.42;98912.15;130369;1087;113940;-68
2021/07/29 08:12:59;;;;;;;14.15;8.48;;;;;;;29.16;53.51;98902.52;130492;1087;23053;-68
2021/07/29 08:15:37;;;;;;;9.20;7.63;;;;;;;29.22;53.94;98906.55;129434;1087;115380;-75
2021/07/29 08:18:05;;;;;;;13.37;8.87;;;;;;;29.28;53.53;98912.59;129024;1089;22906;-75
2021/07/29 08:20:32;;;;;;;9.47;7.80;;;;;;;29.33;53.02;98906.56;129130;1088;114527;-75
2021/07/29 08:23:00;;;;;;;8.70;7.70;;;;;;;29.35;53.98;98904.17;128946;1089;22899;-75
2021/07/29 08:25:27;;;;;;;11.23;8.55;;;;;;;29.40;54.03;98912.23;128986;1090;22812;-79
2021/07/29 08:27:54;;;;;;;15.08;9.53;;;;;;;29.46;53.67;98914.23;129096;1090;115483;-76
2021/07/29 08:30:22;;;;;;;9.98;8.88;;;;;;;29.50;53.31;98901.02;129069;1088;22862;-76
2021/07/29 08:32:50;;;;;;;13.48;8.60;;;;;;;29.56;53.70;98906.24;128963;1089;114006;-77
2021/07/29 08:35:19;;;;;;;9.58;8.58;;;;;;;29.59;53.06;98897.80;129234;1090;25628;-80
2021/07/29 08:37:49;;;;;;;10.80;8.10;;;;;;;29.62;52.99;98902.62;129394;1087;23516;-78
2021/07/29 08:40:18;;;;;;;18.70;8.38;;;;;;;29.66;52.77;98905.44;128854;1089;114078;-77
2021/07/29 08:42:46;;;;;;;12.10;8.95;;;;;;;29.69;52.78;98891.41;128816;1090;23750;-76
2021/07/29 08:45:15;;;;;;;10.77;8.27;;;;;;;29.72;52.80;98893.39;128930;1090;113806;-77
2021/07/29 08:47:46;;;;;;;12.48;8.48;;;;;;;29.76;53.43;98891.39;129054;1090;22816;-77
2021/07/29 08:50:14;;;;;;;13.15;8.03;;;;;;;29.79;53.88;98884.17;129695;1089;22649;-77
2021/07/29 08:52:41;;;;;;;9.23;8.13;;;;;;;29.93;54.46;98886.16;129651;1090;112633;-78
2021/07/29 08:55:09;;;;;;;23.65;10.28;;;;;;;29.97;54.17;98893.42;129326;1090;23018;-78
2021/07/29 08:57:39;;;;;;;10.85;9.75;;;;;;;30.01;54.74;98885.00;129013;1088;113963;-78
2021/07/29 09:00:09;;;;;;;15.83;9.85;;;;;;;30.06;55.00;98893.00;129546;1090;22787;-78
2021/07/29 09:02:36;;;;;;;17.05;10.35;;;;;;;30.09;55.17;98889.39;129454;1088;113987;-77
2021/07/29 09:05:08;;;;;;;16.73;9.60;;;;;;;30.11;54.13;98893.41;128967;1089;22873;-78
2021/07/29 09:07:36;;;;;;;16.40;10.68;;;;;;;30.10;54.02;98891.80;129104;1089;23115;-77
2021/07/29 09:10:21;;;;;;;15.95;9.70;;;;;;;30.09;54.02;98887.38;129191;1089;114145;-79
2021/07/29 09:13:18;;;;;;;14.48;9.48;;;;;;;30.07;53.32;98883.37;129360;1090;22815;-79
2021/07/29 09:15:47;;;;;;;18.83;13.15;;;;;;;30.05;54.21;98874.53;129683;1090;114198;-79
2021/07/29 09:18:16;;;;;;;15.95;14.10;;;;;;;30.02;54.04;98878.14;129104;1088;22898;-77
2021/07/29 09:20:44;;;;;;;20.35;12.95;;;;;;;30.01;54.49;98877.34;129104;1090;113133;-78
2021/07/29 09:23:21;;;;;;;26.75;19.85;;;;;;;30.01;54.25;98873.76;129341;1090;22705;-80
2021/07/29 09:26:00;;;;;;;18.03;13.05;;;;;;;30.02;53.69;98870.52;129362;1089;22822;-77
2021/07/29 09:28:35;;;;;;;11.93;8.95;;;;;;;30.03;52.10;98869.31;128930;1088;113026;-78
2021/07/29 09:33:59;;;;;;;17.60;9.77;;;;;;;30.00;51.58;98860.91;125494;1093;22809;-68
2021/07/29 09:36:32;;;;;;;13.28;8.78;;;;;;;29.99;51.91;98854.50;125164;1093;24162;-68
2021/07/29 09:39:22;;;;;;;11.35;7.58;;;;;;;29.98;51.53;98864.13;129725;1092;113022;-67
2021/07/29 09:41:54;;;;;;;13.18;9.30;;;;;;;29.97;51.77;98854.09;129812;1092;22563;-70
2021/07/29 09:44:42;;;;;;;13.58;9.00;;;;;;;29.97;50.90;98856.10;129693;1093;113907;-69
2021/07/29 09:47:11;;;;;;;14.73;8.68;;;;;;;29.95;50.90;98864.90;129781;1093;22573;-69
2021/07/29 09:49:40;;;;;;;11.40;8.33;;;;;;;29.95;51.18;98853.66;129763;1093;23012;-71
2021/07/29 09:52:09;;;;;;;17.35;8.70;;;;;;;29.94;51.09;98854.86;129713;1093;114105;-69
2021/07/29 09:54:40;;;;;;;16.98;7.75;;;;;;;29.94;50.45;98854.86;129836;1092;23218;-70
2021/07/29 09:57:09;;;;;;;11.83;9.15;;;;;;;29.97;50.44;98858.91;129691;1091;113812;-70
2021/07/29 09:59:38;;;;;;;13.88;7.53;;;;;;;29.98;50.06;98861.31;129800;1092;22586;-69
2021/07/29 10:02:07;;;;;;;14.40;8.38;;;;;;;30.00;49.27;98860.91;129819;1093;23407;-69
2021/07/29 10:04:46;;;;;;;17.65;8.65;;;;;;;30.01;48.98;98854.87;129716;1093;113547;-69
2021/07/29 10:07:25;;;;;;;13.55;7.83;;;;;;;29.99;49.29;98856.50;129771;1093;22626;-70
2021/07/29 10:10:20;;;;;;;10.20;7.58;;;;;;;29.97;49.13;98850.48;129674;1093;113781;-69
2021/07/29 10:12:53;;;;;;;11.70;7.73;;;;;;;29.95;48.97;98852.86;129781;1093;22578;-70
2021/07/29 10:15:38;;;;;;;14.40;6.60;;;;;;;29.96;50.11;98851.66;129749;1091;114065;-70
2021/07/29 10:18:11;;;;;;;16.78;7.55;;;;;;;29.96;48.32;98846.03;129763;1093;22621;-70
2021/07/29 10:20:41;;;;;;;13.43;7.48;;;;;;;29.97;48.88;98836.44;129661;1093;113994;-70
2021/07/29 10:23:13;;;;;;;12.45;7.83;;;;;;;29.99;48.45;98845.27;129811;1092;22572;-69
2021/07/29 10:26:02;;;;;;;16.95;7.63;;;;;;;29.99;49.00;98843.26;129806;1093;22553;-69
2021/07/29 10:28:37;;;;;;;10.73;7.33;;;;;;;30.01;49.29;98840.05;129656;1093;113786;-70
2021/07/29 10:31:07;;;;;;;15.80;7.15;;;;;;;30.03;50.50;98834.80;129819;1093;23714;-69
2021/07/29 10:33:36;;;;;;;14.88;6.80;;;;;;;30.04;49.22;98833.59;129643;1096;113920;-69
2021/07/29 10:36:06;;;;;;;14.55;6.80;;;;;;;30.06;48.23;98837.61;129744;1093;22624;-69
2021/07/29 10:38:46;;;;;;;12.00;6.58;;;;;;;30.09;48.75;98830.38;129679;1093;113687;-71
2021/07/29 10:41:47;;;;;;;14.55;6.05;;;;;;;30.11;49.00;98827.97;129778;1093;22555;-69
2021/07/29 10:44:32;;;;;;;11.93;6.25;;;;;;;30.14;47.84;98825.16;129748;1093;22576;-68
2021/07/29 10:47:07;;;;;;;11.53;6.53;;;;;;;30.16;47.72;98819.11;129673;1093;114470;-68
2021/07/29 10:49:49;;;;;;;14.65;6.38;;;;;;;30.19;46.97;98812.68;129749;1093;22550;-68
2021/07/29 10:52:18;;;;;;;12.03;6.08;;;;;;;30.20;47.00;98814.28;129738;1093;113821;-68
2021/07/29 10:54:47;;;;;;;16.60;6.68;;;;;;;30.22;47.24;98817.50;129806;1092;22532;-68
2021/07/29 10:57:17;;;;;;;11.43;5.28;;;;;;;30.26;46.58;98817.48;129669;1093;114385;-68
2021/07/29 10:59:46;;;;;;;12.90;6.18;;;;;;;30.28;46.50;98820.70;129801;1092;22504;-68
2021/07/29 11:02:21;;;;;;;10.58;6.45;;;;;;;30.29;46.74;98813.88;129737;1093;22619;-68
2021/07/29 11:04:57;;;;;;;15.03;5.83;;;;;;;30.29;47.58;98817.48;129696;1092;114633;-68
2021/07/29 11:07:26;;;;;;;15.05;5.83;;;;;;;30.31;47.85;98811.42;129785;1093;22587;-69
2021/07/29 11:10:05;;;;;;;19.03;7.28;;;;;;;30.33;47.92;98809.81;129649;1093;113825;-68
2021/07/29 11:12:35;;;;;;;12.03;6.83;;;;;;;30.37;47.60;98807.00;129756;1093;22701;-68
2021/07/29 11:15:05;;;;;;;17.35;6.25;;;;;;;30.39;48.27;98799.77;129679;1093;114314;-69
2021/07/29 11:17:34;;;;;;;10.98;6.05;;;;;;;30.42;47.52;98796.14;129822;1093;22561;-68
2021/07/29 11:20:05;;;;;;;12.85;6.15;;;;;;;30.44;48.28;98796.52;129792;1093;22565;-69
2021/07/29 11:22:44;;;;;;;12.78;5.85;;;;;;;30.48;47.97;98794.49;129718;1093;114079;-69
2021/07/29 11:25:14;;;;;;;13.95;5.40;;;;;;;30.49;46.69;98787.66;129792;1092;23802;-69
2021/07/29 11:27:43;;;;;;;9.75;5.08;;;;;;;30.50;45.91;98786.45;129674;1093;113826;-69
2021/07/29 11:30:13;;;;;;;14.83;5.90;;;;;;;30.50;45.76;98780.03;129831;1092;23046;-69